Dobrodošli na spletni strani vremenske postaje Senovo. Vse informacije so informativnega značaja, saj vremenska postaja ni del državne mreže meteoroloških postaj.

AKTUALNIH OBVESTIL NI.


Posebna pozornost v zvezi z vremenskimi dogajanji ni potrebna.    Posebna pozornost v zvezi z vremenskimi dogajanji ni potrebna.

Pogled proti Armezu več informacij Pogled proti Armezu


Bohor več informacij Bohor


Lisca več informacij Lisca


Radar strel več informacij blitzortung!


Radar padavin več informacij rain snow radar


Obiščite še:

Template documentation
and downloads

And another site



METAR v bližini

   
LJLJ - Ljubljana
Posodobljeno: 23-10-2018 21:30
jasno  
jasno  
   Veter: različen 3.7 km/h
Veter: različen 3.7 km/h
Temperatura: 8°C
Točka rosišča: 7°C
Vlažnost: 93%
Zračni tlak: 1017 hPa
Vidljivost: More than 10 km
Podrobnosti o oblakih: jasno
LJLJ 231930Z VRB02KT CAVOK 08/07 Q1017 NOSIG
LJCE - Cerklje ob Krki
Posodobljeno: 23-10-2018 21:30
jasno  
jasno  
   Veter: ZJZ 3.7 km/h
Veter: ZJZ 3.7 km/h
Temperatura: 10°C
Točka rosišča: 8°C
Vlažnost: 88%
Zračni tlak: 1016 hPa
Vidljivost: More than 10 km
Podrobnosti o oblakih: jasno
LJCE 231930Z 25002KT CAVOK 10/08 Q1016 RMK BLU
LJMB - Maribor
Posodobljeno: 23-10-2018 21:30
jasno  
jasno  
   Veter: različen 3.7 km/h
Veter: različen 3.7 km/h
Temperatura: 10°C
Točka rosišča: 6°C
Vlažnost: 76%
Zračni tlak: 1015 hPa
Vidljivost: More than 10 km
Podrobnosti o oblakih: jasno
LJMB 231930Z VRB02KT CAVOK 10/06 Q1015
LJPZ - Portorož
Posodobljeno: 23-10-2018 21:30
jasno  
jasno  
   Veter: JV 13 km/h
Veter: JV 13 km/h
Temperatura: 12°C
Točka rosišča: 9°C
Vlažnost: 82%
Zračni tlak: 1017 hPa
Vidljivost: More than 10 km
Podrobnosti o oblakih: jasno
LJPZ 231930Z 13007KT CAVOK 12/09 Q1017
LDRI - Rijeka, Airport, Croatia
Posodobljeno: 23-10-2018 21:30
jasno  
jasno  
   Veter: Brezveterje
Veter: Brezveterje
Temperatura: 15°C
Točka rosišča: 8°C
Vlažnost: 63%
Zračni tlak: 1017 hPa
Vidljivost: More than 10 km
Podrobnosti o oblakih: jasno
LDRI 231930Z 00000KT CAVOK 15/08 Q1017
LOWK - Klagenfurt, Airport, Avstia
Posodobljeno: 23-10-2018 21:50
pretežno oblačno  
pretežno oblačno  
   Veter: različen 5.6 km/h
Veter: različen 5.6 km/h
Temperatura: 8°C
Občutek mraza: 7°C
Točka rosišča: 6°C
Vlažnost: 87%
Zračni tlak: 1017 hPa
Oblaki: pretežno oblačno
Vidljivost: More than 10 km
Podrobnosti o oblakih: delno oblačno 2743.2 m,
pretežno oblačno 7620 m
LOWK 231950Z VRB03KT 9999 SCT090 BKN250 08/06 Q1017 NOSIG

Script developed by  Saratoga-weather.org Adapted for the template by  Weerstation Leuven

Vremenski podatki so objavljeni na:

European Weather Network

WeatherCloud

Weather Underground

AWEKAS

HAMweather, WeatherForYou, PWS Weather

MapView

Geostik

Slovenia weather network

Oprema, ki se uporablja:

Vremenski program
Cumulus

Vremenski server
Asus

Cumulus

Asus